createdAt,value
2018-10-05T00:01:54.118Z,8.60
2018-10-05T00:04:23.526Z,7.80
2018-10-05T00:06:52.753Z,8.60
2018-10-05T00:09:22.143Z,7.97
2018-10-05T00:11:51.351Z,8.13
2018-10-05T00:14:20.655Z,8.10
2018-10-05T00:16:49.818Z,8.00
2018-10-05T00:19:18.939Z,8.40
2018-10-05T00:21:48.206Z,8.68
2018-10-05T00:24:17.535Z,8.48
2018-10-05T00:26:48.359Z,8.10
2018-10-05T00:29:17.563Z,8.37
2018-10-05T00:31:46.867Z,8.78
2018-10-05T00:34:16.037Z,8.98
2018-10-05T00:36:45.146Z,8.77
2018-10-05T00:39:14.434Z,9.10
2018-10-05T00:41:43.767Z,9.23
2018-10-05T00:44:13.065Z,9.70
2018-10-05T00:46:42.358Z,9.33
2018-10-05T00:49:11.663Z,9.08
2018-10-05T00:51:40.831Z,9.00
2018-10-05T00:54:09.967Z,8.90
2018-10-05T00:56:39.122Z,8.88
2018-10-05T00:59:08.458Z,8.50
2018-10-05T01:01:37.825Z,8.88
2018-10-05T01:04:07.135Z,9.15
2018-10-05T01:06:36.347Z,8.80
2018-10-05T01:09:06.215Z,8.78
2018-10-05T01:11:35.334Z,8.98
2018-10-05T01:14:04.774Z,9.90
2018-10-05T01:16:34.139Z,9.43
2018-10-05T01:19:03.359Z,9.13
2018-10-05T01:21:32.632Z,9.23
2018-10-05T01:24:01.739Z,9.40
2018-10-05T01:26:30.850Z,9.95
2018-10-05T01:29:00.027Z,9.35
2018-10-05T01:31:29.352Z,9.23
2018-10-05T01:33:58.615Z,10.03
2018-10-05T01:36:27.843Z,10.08
2018-10-05T01:38:57.168Z,9.53
2018-10-05T01:41:26.327Z,9.18
2018-10-05T01:43:55.664Z,9.78
2018-10-05T01:46:24.812Z,9.55
2018-10-05T01:48:53.944Z,9.90
2018-10-05T01:51:35.034Z,9.83
2018-10-05T01:54:05.200Z,10.45
2018-10-05T01:56:34.726Z,10.55
2018-10-05T01:59:04.087Z,10.68
2018-10-05T02:01:33.758Z,10.05
2018-10-05T02:04:03.017Z,11.30
2018-10-05T02:06:32.345Z,10.45
2018-10-05T02:09:01.770Z,10.72
2018-10-05T02:11:31.028Z,10.98
2018-10-05T02:14:00.138Z,10.50
2018-10-05T02:16:29.521Z,10.40
2018-10-05T02:18:58.852Z,10.08
2018-10-05T02:21:28.142Z,10.15
2018-10-05T02:23:57.348Z,10.10
2018-10-05T02:26:26.675Z,10.30
2018-10-05T02:28:55.911Z,10.35
2018-10-05T02:31:25.030Z,10.15
2018-10-05T02:33:54.464Z,9.98
2018-10-05T02:36:23.847Z,10.65
2018-10-05T02:38:53.239Z,10.00
2018-10-05T02:41:22.440Z,10.23
2018-10-05T02:43:51.656Z,9.93
2018-10-05T02:46:20.807Z,11.05
2018-10-05T02:48:50.047Z,9.90
2018-10-05T02:51:19.202Z,9.23
2018-10-05T02:53:48.319Z,9.60
2018-10-05T02:56:17.627Z,10.25
2018-10-05T02:58:46.903Z,9.83
2018-10-05T03:01:26.976Z,10.13
2018-10-05T03:03:56.350Z,9.60
2018-10-05T03:06:25.586Z,9.03
2018-10-05T03:08:54.748Z,9.08
2018-10-05T03:11:23.965Z,9.20
2018-10-05T03:13:53.285Z,9.35
2018-10-05T03:16:22.447Z,9.98
2018-10-05T03:18:51.774Z,9.35
2018-10-05T03:21:21.031Z,9.43
2018-10-05T03:23:50.263Z,9.05
2018-10-05T03:26:19.539Z,9.50
2018-10-05T03:28:48.650Z,8.95
2018-10-05T03:31:17.929Z,9.40
2018-10-05T03:33:47.164Z,9.43
2018-10-05T03:36:16.980Z,9.30
2018-10-05T03:38:46.270Z,9.20
2018-10-05T03:41:15.570Z,8.90
2018-10-05T03:43:44.839Z,8.95
2018-10-05T03:46:14.071Z,9.10
2018-10-05T03:48:43.245Z,8.88
2018-10-05T03:51:12.351Z,8.90
2018-10-05T03:53:41.636Z,9.68
2018-10-05T03:56:10.910Z,9.78
2018-10-05T03:58:40.022Z,9.27
2018-10-05T04:01:09.527Z,9.23
2018-10-05T04:03:38.759Z,9.38
2018-10-05T04:06:07.920Z,9.33
2018-10-05T04:08:37.071Z,9.38
2018-10-05T04:11:06.346Z,8.95
2018-10-05T04:13:35.423Z,9.27
2018-10-05T04:16:04.675Z,8.98
2018-10-05T04:18:34.008Z,8.95
2018-10-05T04:21:03.435Z,8.83
2018-10-05T04:23:32.713Z,8.75
2018-10-05T04:26:01.954Z,9.23
2018-10-05T04:28:31.283Z,9.55
2018-10-05T04:31:00.411Z,9.07
2018-10-05T04:33:29.652Z,8.63
2018-10-05T04:35:58.898Z,8.48
2018-10-05T04:38:28.075Z,8.70
2018-10-05T04:40:57.439Z,9.65
2018-10-05T04:43:27.215Z,9.28
2018-10-05T04:45:56.452Z,9.95
2018-10-05T04:48:25.612Z,9.63
2018-10-05T04:50:54.837Z,9.30
2018-10-05T04:53:24.010Z,9.15
2018-10-05T04:55:53.226Z,8.90
2018-10-05T04:58:22.496Z,9.25
2018-10-05T05:00:51.618Z,8.65
2018-10-05T05:03:20.921Z,9.15
2018-10-05T05:05:50.330Z,9.70
2018-10-05T05:08:19.654Z,9.50
2018-10-05T05:10:48.732Z,9.13
2018-10-05T05:13:17.895Z,9.10
2018-10-05T05:15:47.193Z,9.00
2018-10-05T05:18:16.459Z,9.25
2018-10-05T05:20:46.855Z,9.40
2018-10-05T05:23:16.127Z,9.28
2018-10-05T05:25:45.543Z,9.58
2018-10-05T05:28:14.562Z,9.73
2018-10-05T05:30:43.736Z,9.33
2018-10-05T05:33:12.903Z,9.38
2018-10-05T05:35:42.044Z,9.70
2018-10-05T05:38:11.203Z,9.38
2018-10-05T05:40:40.431Z,8.75
2018-10-05T05:43:09.807Z,9.03
2018-10-05T05:45:39.019Z,8.98
2018-10-05T05:48:08.595Z,9.08
2018-10-05T05:50:37.715Z,8.60
2018-10-05T05:53:06.924Z,8.95
2018-10-05T05:55:36.218Z,9.38
2018-10-05T05:58:05.410Z,9.20
2018-10-05T06:00:34.791Z,9.73
2018-10-05T06:03:04.227Z,9.50
2018-10-05T06:05:33.487Z,9.73
2018-10-05T06:08:02.717Z,9.55
2018-10-05T06:10:32.001Z,9.43
2018-10-05T06:13:01.114Z,9.43
2018-10-05T06:15:30.384Z,10.05
2018-10-05T06:17:59.614Z,9.80
2018-10-05T06:20:28.885Z,10.20
2018-10-05T06:22:58.214Z,10.38
2018-10-05T06:25:27.588Z,9.53
2018-10-05T06:27:56.822Z,9.78
2018-10-05T06:30:26.004Z,9.20
2018-10-05T06:32:55.348Z,10.13
2018-10-05T06:35:24.454Z,9.63
2018-10-05T06:37:53.606Z,10.93
2018-10-05T06:40:22.976Z,10.80
2018-10-05T06:42:52.213Z,12.25
2018-10-05T06:45:21.600Z,11.90
2018-10-05T06:47:50.867Z,12.45
2018-10-05T06:50:33.912Z,10.93
2018-10-05T06:53:07.247Z,11.00
2018-10-05T06:55:36.623Z,11.30
2018-10-05T06:58:05.815Z,12.15
2018-10-05T07:00:35.130Z,12.55
2018-10-05T07:03:04.386Z,12.70
2018-10-05T07:05:33.818Z,12.98
2018-10-05T07:08:03.122Z,12.98
2018-10-05T07:10:32.935Z,12.93
2018-10-05T07:13:02.204Z,12.95
2018-10-05T07:15:31.316Z,13.65
2018-10-05T07:18:00.695Z,13.75
2018-10-05T07:20:30.130Z,13.58
2018-10-05T07:22:59.397Z,14.13
2018-10-05T07:25:28.540Z,13.70
2018-10-05T07:27:57.900Z,15.15
2018-10-05T07:30:27.047Z,14.50
2018-10-05T07:32:56.301Z,14.15
2018-10-05T07:35:25.427Z,13.83
2018-10-05T07:37:54.578Z,14.25
2018-10-05T07:40:23.911Z,14.98
2018-10-05T07:42:53.248Z,14.35
2018-10-05T07:45:22.515Z,14.68
2018-10-05T07:47:51.674Z,14.15
2018-10-05T07:50:20.911Z,14.87
2018-10-05T07:52:49.975Z,14.68
2018-10-05T07:55:19.103Z,14.83
2018-10-05T07:57:48.276Z,15.25
2018-10-05T08:00:17.398Z,14.68
2018-10-05T08:02:46.570Z,15.05
2018-10-05T08:05:15.767Z,15.38
2018-10-05T08:07:45.052Z,14.83
2018-10-05T08:10:14.383Z,15.90
2018-10-05T08:12:43.859Z,15.25
2018-10-05T08:15:13.101Z,14.98
2018-10-05T08:17:42.258Z,14.03
2018-10-05T08:20:11.380Z,14.80
2018-10-05T08:22:40.561Z,14.10
2018-10-05T08:25:09.795Z,14.80
2018-10-05T08:27:38.964Z,13.95
2018-10-05T08:30:08.472Z,13.38
2018-10-05T08:32:37.769Z,13.38
2018-10-05T08:35:07.043Z,15.27
2018-10-05T08:37:36.379Z,13.72
2018-10-05T08:40:06.109Z,13.68
2018-10-05T08:42:35.383Z,13.40
2018-10-05T08:45:04.687Z,11.93
2018-10-05T08:47:34.090Z,12.78
2018-10-05T08:50:03.367Z,12.03
2018-10-05T08:52:32.952Z,10.75
2018-10-05T08:55:02.276Z,10.90
2018-10-05T08:57:31.690Z,10.58
2018-10-05T09:00:00.986Z,10.98
2018-10-05T09:02:30.195Z,10.18
2018-10-05T09:04:59.476Z,10.70
2018-10-05T09:07:28.679Z,9.80
2018-10-05T09:09:57.846Z,9.30
2018-10-05T09:12:26.978Z,9.53
2018-10-05T09:14:56.127Z,9.48
2018-10-05T09:17:25.271Z,8.80
2018-10-05T09:19:54.652Z,7.87
2018-10-05T09:22:24.075Z,8.30
2018-10-05T09:24:53.344Z,7.12
2018-10-05T09:27:22.467Z,7.10
2018-10-05T09:29:51.659Z,7.12
2018-10-05T09:32:20.850Z,6.70
2018-10-05T09:34:50.147Z,6.58
2018-10-05T09:37:19.472Z,6.53
2018-10-05T09:39:48.738Z,6.25
2018-10-05T09:42:17.866Z,5.90
2018-10-05T09:44:47.160Z,5.78
2018-10-05T09:47:16.380Z,5.42
2018-10-05T09:49:45.527Z,5.17
2018-10-05T09:52:14.720Z,5.10
2018-10-05T09:54:43.890Z,5.37
2018-10-05T09:57:13.144Z,5.17
2018-10-05T09:59:42.490Z,4.83
2018-10-05T10:02:18.907Z,4.78
2018-10-05T10:04:48.112Z,4.67
2018-10-05T10:07:17.519Z,4.40
2018-10-05T10:09:46.823Z,4.70
2018-10-05T10:12:16.098Z,4.60
2018-10-05T10:14:45.413Z,4.50
2018-10-05T10:17:14.584Z,4.67
2018-10-05T10:19:43.814Z,4.30
2018-10-05T10:22:12.976Z,4.30
2018-10-05T10:24:42.207Z,5.08
2018-10-05T10:27:12.279Z,4.47
2018-10-05T10:29:41.418Z,4.60
2018-10-05T10:32:10.688Z,4.45
2018-10-05T10:34:39.918Z,4.70
2018-10-05T10:37:09.182Z,4.75
2018-10-05T10:39:38.411Z,4.70
2018-10-05T10:42:07.781Z,5.28
2018-10-05T10:44:36.915Z,4.80
2018-10-05T10:47:06.180Z,5.03
2018-10-05T10:49:35.403Z,5.05
2018-10-05T10:52:04.579Z,5.00
2018-10-05T10:54:33.696Z,4.70
2018-10-05T10:57:03.006Z,4.97
2018-10-05T10:59:32.293Z,4.67
2018-10-05T11:02:01.546Z,4.87
2018-10-05T11:04:30.862Z,4.80
2018-10-05T11:06:59.898Z,4.45
2018-10-05T11:09:29.068Z,5.08
2018-10-05T11:11:58.392Z,4.95
2018-10-05T11:14:27.555Z,4.60
2018-10-05T11:16:56.840Z,5.10
2018-10-05T11:19:25.967Z,5.50
2018-10-05T11:21:55.155Z,5.63
2018-10-05T11:24:24.230Z,5.78
2018-10-05T11:26:53.472Z,5.50
2018-10-05T11:29:22.746Z,4.97
2018-10-05T11:31:52.075Z,5.45
2018-10-05T11:34:21.337Z,4.92
2018-10-05T11:36:50.560Z,5.55
2018-10-05T11:39:19.738Z,5.45
2018-10-05T11:41:49.063Z,5.60
2018-10-05T11:44:18.228Z,5.55
2018-10-05T11:46:47.463Z,5.40
2018-10-05T11:49:16.724Z,5.50
2018-10-05T11:51:46.064Z,5.30
2018-10-05T11:54:15.314Z,5.28
2018-10-05T11:56:44.751Z,5.33
2018-10-05T11:59:14.032Z,5.08
2018-10-05T12:01:43.251Z,4.45
2018-10-05T12:04:12.318Z,4.60
2018-10-05T12:06:41.602Z,4.22
2018-10-05T12:09:10.912Z,5.03
2018-10-05T12:11:40.236Z,4.55
2018-10-05T12:14:09.520Z,4.10
2018-10-05T12:16:38.643Z,4.28
2018-10-05T12:21:49.848Z,4.33
2018-10-05T12:24:19.004Z,4.50
2018-10-05T12:26:48.183Z,4.10
2018-10-05T12:29:17.303Z,4.25
2018-10-05T12:31:46.623Z,3.90
2018-10-05T12:34:15.896Z,4.12
2018-10-05T12:36:45.115Z,3.40
2018-10-05T12:39:14.291Z,3.70
2018-10-05T12:41:43.619Z,3.80
2018-10-05T12:44:12.933Z,3.65
2018-10-05T12:46:42.111Z,3.80
2018-10-05T12:49:11.523Z,3.80
2018-10-05T12:51:40.795Z,3.80
2018-10-05T12:54:10.015Z,3.90
2018-10-05T12:56:39.294Z,3.70
2018-10-05T12:59:08.407Z,4.60
2018-10-05T13:01:37.795Z,4.25
2018-10-05T13:04:07.211Z,3.55
2018-10-05T13:06:36.595Z,3.90
2018-10-05T13:09:07.160Z,3.83
2018-10-05T13:11:36.527Z,4.25
2018-10-05T13:14:06.224Z,3.27
2018-10-05T13:16:35.631Z,3.67
2018-10-05T13:19:05.068Z,4.17
2018-10-05T13:21:34.694Z,4.10
2018-10-05T13:24:04.695Z,4.03
2018-10-05T13:26:34.223Z,3.77
2018-10-05T13:29:03.955Z,3.72
2018-10-05T13:31:33.655Z,3.20
2018-10-05T13:34:03.286Z,3.60
2018-10-05T13:36:32.587Z,3.35
2018-10-05T13:39:01.711Z,3.10
2018-10-05T13:41:31.011Z,3.00
2018-10-05T13:44:00.210Z,3.02
2018-10-05T13:46:29.507Z,3.08
2018-10-05T13:48:58.980Z,3.30
2018-10-05T13:51:28.212Z,3.22
2018-10-05T13:53:57.384Z,3.10
2018-10-05T13:56:26.703Z,2.80
2018-10-05T13:58:55.970Z,2.58
2018-10-05T14:01:25.202Z,2.80
2018-10-05T14:03:54.472Z,2.60
2018-10-05T14:06:23.798Z,3.00
2018-10-05T14:08:53.087Z,2.70
2018-10-05T14:11:22.312Z,2.83
2018-10-05T14:13:51.857Z,2.58
2018-10-05T14:16:21.202Z,2.57
2018-10-05T14:18:50.490Z,2.30
2018-10-05T14:21:19.908Z,8.13
2018-10-05T14:23:49.074Z,5.33
2018-10-05T14:26:18.203Z,2.87
2018-10-05T14:28:47.478Z,2.40
2018-10-05T14:31:16.506Z,2.77
2018-10-05T14:33:45.703Z,2.52
2018-10-05T14:36:14.879Z,2.70
2018-10-05T14:38:44.159Z,2.75
2018-10-05T14:41:13.388Z,3.00
2018-10-05T14:43:42.668Z,2.60
2018-10-05T14:46:11.783Z,2.75
2018-10-05T14:48:41.050Z,2.30
2018-10-05T14:51:10.274Z,2.75
2018-10-05T14:53:39.549Z,2.45
2018-10-05T14:56:08.672Z,2.40
2018-10-05T14:58:37.738Z,3.00
2018-10-05T15:01:06.866Z,3.02
2018-10-05T15:03:36.043Z,2.95
2018-10-05T15:06:05.254Z,3.75
2018-10-05T15:08:34.367Z,3.20
2018-10-05T15:11:03.666Z,3.20
2018-10-05T15:13:32.821Z,3.00
2018-10-05T15:16:02.043Z,2.90
2018-10-05T15:18:31.222Z,2.90
2018-10-05T15:21:00.327Z,3.30
2018-10-05T15:23:29.816Z,3.33
2018-10-05T15:25:59.238Z,3.15
2018-10-05T15:28:28.398Z,3.50
2018-10-05T15:30:57.646Z,2.87
2018-10-05T15:33:26.904Z,3.12
2018-10-05T15:35:56.035Z,3.30
2018-10-05T15:38:25.211Z,3.20
2018-10-05T15:40:54.362Z,3.12
2018-10-05T15:43:23.533Z,3.20
2018-10-05T15:45:56.204Z,2.80
2018-10-05T15:48:25.403Z,3.00
2018-10-05T15:50:54.676Z,3.22
2018-10-05T15:53:23.904Z,3.52
2018-10-05T15:55:53.383Z,3.10
2018-10-05T15:58:22.776Z,4.10
2018-10-05T16:00:51.895Z,4.08
2018-10-05T16:03:21.210Z,4.20
2018-10-05T16:05:50.624Z,4.10
2018-10-05T16:08:19.924Z,4.83
2018-10-05T16:10:52.158Z,4.80
2018-10-05T16:13:32.675Z,4.37
2018-10-05T16:17:03.134Z,5.00
2018-10-05T16:19:32.879Z,4.75
2018-10-05T16:22:02.159Z,4.70
2018-10-05T16:24:38.324Z,4.65
2018-10-05T16:27:08.422Z,4.78
2018-10-05T16:29:38.115Z,5.30
2018-10-05T16:32:08.016Z,5.33
2018-10-05T16:34:37.278Z,5.95
2018-10-05T16:37:06.751Z,5.37
2018-10-05T16:39:36.078Z,7.97
2018-10-05T16:42:05.364Z,8.50
2018-10-05T16:44:34.579Z,6.50
2018-10-05T16:47:03.954Z,4.35
2018-10-05T16:49:33.083Z,4.83
2018-10-05T16:52:02.355Z,4.80
2018-10-05T16:54:31.488Z,4.62
2018-10-05T16:57:00.650Z,4.50
2018-10-05T16:59:29.863Z,4.20
2018-10-05T17:01:58.992Z,3.90
2018-10-05T17:04:29.260Z,3.92
2018-10-05T17:07:00.811Z,4.47
2018-10-05T17:09:31.606Z,4.03
2018-10-05T17:12:00.979Z,3.70
2018-10-05T17:14:30.482Z,3.58
2018-10-05T17:16:59.765Z,3.50
2018-10-05T17:19:29.083Z,4.00
2018-10-05T17:21:58.279Z,4.10
2018-10-05T17:24:27.436Z,3.90
2018-10-05T17:26:56.868Z,4.05
2018-10-05T17:29:26.347Z,4.35
2018-10-05T17:31:55.699Z,3.80
2018-10-05T17:34:25.255Z,3.92
2018-10-05T17:36:55.295Z,4.50
2018-10-05T17:39:24.475Z,3.95
2018-10-05T17:41:53.704Z,4.63
2018-10-05T17:44:23.610Z,4.58
2018-10-05T17:46:53.946Z,4.30
2018-10-05T17:52:05.749Z,4.20
2018-10-05T17:54:35.120Z,4.45
2018-10-05T17:57:04.341Z,4.40
2018-10-05T17:59:33.847Z,4.45
2018-10-05T18:02:03.227Z,4.60
2018-10-05T18:04:38.570Z,5.10
2018-10-05T18:07:07.871Z,4.60
2018-10-05T18:09:37.188Z,4.72
2018-10-05T18:12:07.200Z,5.00
2018-10-05T18:14:36.536Z,5.40
2018-10-05T18:17:05.697Z,5.35
2018-10-05T18:19:36.335Z,5.97
2018-10-05T18:22:05.669Z,5.97
2018-10-05T18:24:34.920Z,5.00
2018-10-05T18:27:08.170Z,4.63
2018-10-05T18:29:37.588Z,5.00
2018-10-05T18:32:06.522Z,5.50
2018-10-05T18:34:35.458Z,5.17
2018-10-05T18:37:04.398Z,5.65
2018-10-05T18:39:34.873Z,5.83
2018-10-05T18:42:04.227Z,5.47
2018-10-05T18:44:33.120Z,5.97
2018-10-05T18:47:02.801Z,6.47
2018-10-05T18:49:31.711Z,6.67
2018-10-05T18:52:00.585Z,6.28
2018-10-05T18:54:29.500Z,6.22
2018-10-05T18:57:09.181Z,6.40
2018-10-05T18:59:38.250Z,7.70
2018-10-05T19:02:07.252Z,6.75
2018-10-05T19:04:36.508Z,6.15
2018-10-05T19:07:05.541Z,6.20
2018-10-05T19:09:34.459Z,6.90
2018-10-05T19:12:07.084Z,6.60
2018-10-05T19:14:38.875Z,6.45
2018-10-05T19:17:07.811Z,6.05
2018-10-05T19:19:36.707Z,6.17
2018-10-05T19:22:05.671Z,6.20
2018-10-05T19:24:37.894Z,6.60
2018-10-05T19:27:06.867Z,6.37
2018-10-05T19:29:38.434Z,5.92
2018-10-05T19:32:07.375Z,6.50
2018-10-05T19:34:36.247Z,6.28
2018-10-05T19:37:05.183Z,6.33
2018-10-05T19:39:35.072Z,6.37
2018-10-05T19:42:04.416Z,6.42
2018-10-05T19:44:40.300Z,6.70
2018-10-05T19:47:09.204Z,6.00
2018-10-05T19:49:38.104Z,7.20
2018-10-05T19:52:07.006Z,6.35
2018-10-05T19:54:35.895Z,6.05
2018-10-05T19:57:04.763Z,6.03
2018-10-05T19:59:33.741Z,5.80
2018-10-05T20:02:02.649Z,6.10
2018-10-05T20:04:31.556Z,6.35
2018-10-05T20:07:00.515Z,6.10
2018-10-05T20:09:29.411Z,5.90
2018-10-05T20:11:58.301Z,5.70
2018-10-05T20:14:27.556Z,5.20
2018-10-05T20:16:56.572Z,5.45
2018-10-05T20:19:25.498Z,5.40
2018-10-05T20:21:54.376Z,5.45
2018-10-05T20:24:23.316Z,4.90
2018-10-05T20:26:52.202Z,5.20
2018-10-05T20:29:21.115Z,5.33
2018-10-05T20:31:50.008Z,5.12
2018-10-05T20:34:18.907Z,4.87
2018-10-05T20:36:47.981Z,5.62
2018-10-05T20:39:16.735Z,5.67
2018-10-05T20:41:45.607Z,4.85
2018-10-05T20:44:14.514Z,4.80
2018-10-05T20:46:43.478Z,4.72
2018-10-05T20:49:12.381Z,4.80
2018-10-05T20:53:31.329Z,5.10
2018-10-05T20:56:00.230Z,5.37
2018-10-05T20:58:29.479Z,5.00
2018-10-05T21:00:58.675Z,5.10
2018-10-05T21:03:28.069Z,5.35
2018-10-05T21:05:57.409Z,5.47
2018-10-05T21:08:28.440Z,5.80
2018-10-05T21:10:58.208Z,5.72
2018-10-05T21:13:27.347Z,5.72
2018-10-05T21:16:11.605Z,5.30
2018-10-05T21:18:40.769Z,5.25
2018-10-05T21:21:09.990Z,5.57
2018-10-05T21:23:39.275Z,5.70
2018-10-05T21:26:08.691Z,5.10
2018-10-05T21:28:38.000Z,5.30
2018-10-05T21:31:07.404Z,5.60
2018-10-05T21:33:36.605Z,5.90
2018-10-05T21:36:05.756Z,5.80
2018-10-05T21:38:34.883Z,5.40
2018-10-05T21:41:04.155Z,5.60
2018-10-05T21:43:33.279Z,5.78
2018-10-05T21:46:02.756Z,6.28
2018-10-05T21:48:31.992Z,6.37
2018-10-05T21:51:01.149Z,6.60
2018-10-05T21:53:30.492Z,6.28
2018-10-05T21:55:59.581Z,6.40
2018-10-05T21:58:28.888Z,5.87
2018-10-05T22:00:58.660Z,6.03
2018-10-05T22:03:31.439Z,6.75
2018-10-05T22:06:00.772Z,6.87
2018-10-05T22:08:29.919Z,6.87
2018-10-05T22:10:59.175Z,7.37
2018-10-05T22:13:28.311Z,6.45
2018-10-05T22:15:57.452Z,8.10
2018-10-05T22:18:32.126Z,7.60
2018-10-05T22:21:01.275Z,8.83
2018-10-05T22:23:30.520Z,8.25
2018-10-05T22:25:59.671Z,8.40
2018-10-05T22:28:28.981Z,8.20
2018-10-05T22:31:05.340Z,8.00
2018-10-05T22:33:34.526Z,8.38
2018-10-05T22:36:03.808Z,9.13
2018-10-05T22:38:33.039Z,8.60
2018-10-05T22:41:02.200Z,8.20
2018-10-05T22:43:31.307Z,8.28
2018-10-05T22:46:00.392Z,8.70
2018-10-05T22:48:29.611Z,9.18
2018-10-05T22:50:59.089Z,8.55
2018-10-05T22:53:28.324Z,7.92
2018-10-05T22:55:57.519Z,8.08
2018-10-05T22:58:26.788Z,8.05
2018-10-05T23:00:56.015Z,7.62
2018-10-05T23:03:25.183Z,7.67
2018-10-05T23:05:54.404Z,7.37
2018-10-05T23:08:35.339Z,7.87
2018-10-05T23:11:04.575Z,7.80
2018-10-05T23:13:33.754Z,7.70
2018-10-05T23:16:02.855Z,7.40
2018-10-05T23:18:32.255Z,7.08
2018-10-05T23:21:01.467Z,7.30
2018-10-05T23:23:30.777Z,7.90
2018-10-05T23:26:00.048Z,7.90
2018-10-05T23:28:29.267Z,7.95
2018-10-05T23:30:58.419Z,7.70
2018-10-05T23:33:27.538Z,7.50
2018-10-05T23:35:56.838Z,7.78
2018-10-05T23:38:26.290Z,7.25
2018-10-05T23:40:55.619Z,6.97
2018-10-05T23:43:24.856Z,7.15
2018-10-05T23:45:54.032Z,7.78
2018-10-05T23:48:23.255Z,7.00
2018-10-05T23:50:52.534Z,6.90
2018-10-05T23:53:21.652Z,6.67
2018-10-05T23:55:51.467Z,6.58
2018-10-05T23:58:20.758Z,6.70
